createdAt,value
2023-04-30T00:05:01.322Z,0
2023-04-30T00:11:21.394Z,0
2023-04-30T00:17:44.550Z,0
2023-04-30T00:24:04.545Z,0
2023-04-30T00:30:27.403Z,0
2023-04-30T00:36:47.406Z,0
2023-04-30T00:43:10.316Z,0
2023-04-30T00:49:30.428Z,0
2023-04-30T00:55:53.371Z,0
2023-04-30T01:02:13.478Z,0
2023-04-30T01:08:36.432Z,0
2023-04-30T01:14:56.457Z,0
2023-04-30T01:21:19.344Z,0
2023-04-30T01:27:39.360Z,0
2023-04-30T01:34:02.405Z,0
2023-04-30T01:40:22.435Z,0
2023-04-30T01:46:45.452Z,0
2023-04-30T01:53:05.439Z,0
2023-04-30T01:59:28.406Z,0
2023-04-30T02:05:48.413Z,0
2023-04-30T02:12:11.422Z,0
2023-04-30T02:18:31.364Z,0
2023-04-30T02:24:54.405Z,0
2023-04-30T02:31:14.399Z,0
2023-04-30T02:37:37.467Z,0
2023-04-30T02:43:57.369Z,0
2023-04-30T02:50:20.523Z,0
2023-04-30T02:56:40.389Z,0
2023-04-30T03:03:03.507Z,0
2023-04-30T03:09:23.395Z,0
2023-04-30T03:15:46.384Z,0
2023-04-30T03:31:36.258Z,1
2023-04-30T03:37:56.313Z,0
2023-04-30T03:44:19.456Z,2
2023-04-30T03:50:39.429Z,6
2023-04-30T03:57:02.457Z,14
2023-04-30T04:03:22.362Z,32
2023-04-30T04:09:45.486Z,60
2023-04-30T04:16:05.650Z,100
2023-04-30T04:22:28.376Z,151
2023-04-30T04:28:48.403Z,213
2023-04-30T04:35:11.420Z,266
2023-04-30T04:41:31.380Z,344
2023-04-30T04:47:54.468Z,410
2023-04-30T04:54:14.329Z,490
2023-04-30T05:00:37.450Z,588
2023-04-30T05:06:57.413Z,729
2023-04-30T05:13:20.365Z,827
2023-04-30T05:19:40.400Z,795
2023-04-30T05:26:03.438Z,872
2023-04-30T05:32:23.574Z,954
2023-04-30T05:38:46.414Z,1036
2023-04-30T05:45:06.481Z,1026
2023-04-30T05:51:29.448Z,1168
2023-04-30T05:57:49.375Z,1085
2023-04-30T06:04:12.537Z,1240
2023-04-30T06:10:32.388Z,1261
2023-04-30T06:16:55.419Z,1314
2023-04-30T06:23:15.469Z,1204
2023-04-30T06:29:38.433Z,1485
2023-04-30T06:35:58.443Z,1139
2023-04-30T06:42:21.550Z,1124
2023-04-30T06:48:41.404Z,1129
2023-04-30T06:55:04.388Z,1160
2023-04-30T07:01:24.376Z,1187
2023-04-30T07:07:47.384Z,1198
2023-04-30T07:14:07.351Z,1223
2023-04-30T07:20:30.392Z,1246
2023-04-30T07:26:50.456Z,1273
2023-04-30T07:33:13.456Z,1314
2023-04-30T07:39:34.526Z,1364
2023-04-30T07:45:57.408Z,1429
2023-04-30T07:52:17.358Z,1497
2023-04-30T07:58:40.461Z,1581
2023-04-30T08:05:00.362Z,1656
2023-04-30T08:11:23.378Z,1722
2023-04-30T08:17:43.377Z,1791
2023-04-30T08:24:06.369Z,1865
2023-04-30T08:30:26.402Z,1951
2023-04-30T08:46:54.294Z,2187
2023-04-30T08:53:14.327Z,2274
2023-04-30T08:59:37.388Z,2373
2023-04-30T09:05:57.463Z,2472
2023-04-30T09:12:20.560Z,2584
2023-04-30T09:18:40.359Z,2696
2023-04-30T09:25:03.406Z,2833
2023-04-30T09:31:23.404Z,3057
2023-04-30T09:37:46.424Z,3236
2023-04-30T09:44:06.443Z,3279
2023-04-30T09:50:29.346Z,3532
2023-04-30T09:56:49.309Z,3569
2023-04-30T10:03:12.461Z,3750
2023-04-30T10:09:32.329Z,3823
2023-04-30T10:15:55.337Z,4135
2023-04-30T10:22:15.396Z,4186
2023-04-30T10:28:38.328Z,2941
2023-04-30T10:34:58.361Z,3512
2023-04-30T10:41:21.392Z,4739
2023-04-30T10:47:41.338Z,3897
2023-04-30T10:54:04.373Z,4945
2023-04-30T11:00:24.358Z,2991
2023-04-30T11:06:47.406Z,3002
2023-04-30T11:13:07.411Z,5756
2023-04-30T11:19:30.356Z,5887
2023-04-30T11:25:50.384Z,3757
2023-04-30T11:32:13.350Z,6281
2023-04-30T11:38:33.371Z,2903
2023-04-30T11:44:56.338Z,7013
2023-04-30T11:51:16.340Z,7067
2023-04-30T11:57:39.352Z,3709
2023-04-30T12:03:59.365Z,8246
2023-04-30T12:10:22.375Z,8132
2023-04-30T12:16:42.411Z,7276
2023-04-30T12:23:05.332Z,4224
2023-04-30T12:29:25.350Z,7338
2023-04-30T12:35:48.355Z,7959
2023-04-30T12:42:08.368Z,7719
2023-04-30T12:48:31.329Z,8946
2023-04-30T12:54:51.455Z,5727
2023-04-30T13:01:14.409Z,3220
2023-04-30T13:07:34.328Z,2384
2023-04-30T13:13:57.460Z,9919
2023-04-30T13:20:17.369Z,9566
2023-04-30T13:26:40.332Z,9528
2023-04-30T13:33:00.440Z,4403
2023-04-30T13:39:23.337Z,4050
2023-04-30T13:45:43.359Z,4199
2023-04-30T13:52:06.359Z,3441
2023-04-30T13:58:26.346Z,4020
2023-04-30T14:05:02.458Z,7354
2023-04-30T14:11:09.354Z,9617
2023-04-30T14:34:16.332Z,5134
2023-04-30T14:40:39.343Z,2849
2023-04-30T14:46:59.373Z,3531
2023-04-30T14:53:22.343Z,4465
2023-04-30T14:59:42.335Z,7219
2023-04-30T15:06:05.346Z,7907
2023-04-30T15:12:25.346Z,3931
2023-04-30T15:18:48.368Z,2989
2023-04-30T15:25:08.314Z,1901
2023-04-30T15:31:31.443Z,2258
2023-04-30T15:37:51.332Z,6711
2023-04-30T15:44:14.365Z,7066
2023-04-30T15:50:34.491Z,7091
2023-04-30T15:56:57.366Z,3131
2023-04-30T16:03:17.532Z,4818
2023-04-30T16:09:40.351Z,5112
2023-04-30T16:16:00.477Z,2943
2023-04-30T16:22:23.469Z,6885
2023-04-30T16:28:43.353Z,2922
2023-04-30T16:35:06.393Z,3947
2023-04-30T16:41:26.342Z,2313
2023-04-30T16:47:49.655Z,2257
2023-04-30T16:54:09.641Z,2224
2023-04-30T17:00:32.334Z,2387
2023-04-30T17:06:52.403Z,2296
2023-04-30T17:13:15.325Z,1876
2023-04-30T17:19:35.447Z,2253
2023-04-30T17:25:58.360Z,2919
2023-04-30T17:32:18.322Z,2616
2023-04-30T17:38:41.363Z,2065
2023-04-30T17:45:01.370Z,1399
2023-04-30T17:51:24.333Z,1144
2023-04-30T17:57:44.341Z,984
2023-04-30T18:04:07.379Z,848
2023-04-30T18:10:27.468Z,734
2023-04-30T18:16:50.359Z,610
2023-04-30T18:23:10.351Z,500
2023-04-30T18:29:33.351Z,374
2023-04-30T18:35:53.338Z,258
2023-04-30T18:42:16.408Z,161
2023-04-30T18:48:36.334Z,94
2023-04-30T18:54:59.332Z,53
2023-04-30T19:01:19.400Z,27
2023-04-30T19:07:42.336Z,12
2023-04-30T19:14:02.381Z,5
2023-04-30T19:20:25.378Z,2
2023-04-30T19:26:45.389Z,0
2023-04-30T19:33:08.395Z,0
2023-04-30T19:39:28.489Z,0
2023-04-30T19:45:51.353Z,0
2023-04-30T20:08:39.277Z,0
2023-04-30T20:14:59.326Z,0
2023-04-30T20:21:22.376Z,0
2023-04-30T20:27:42.360Z,0
2023-04-30T20:34:05.366Z,0
2023-04-30T20:40:25.358Z,0
2023-04-30T20:46:48.378Z,0
2023-04-30T20:53:10.345Z,0
2023-04-30T20:59:31.330Z,0
2023-04-30T21:05:51.365Z,0
2023-04-30T21:12:14.423Z,0
2023-04-30T21:18:34.332Z,0
2023-04-30T21:24:57.448Z,0
2023-04-30T21:31:17.401Z,0
2023-04-30T21:37:40.357Z,0
2023-04-30T21:44:00.406Z,0
2023-04-30T21:50:23.385Z,0
2023-04-30T21:56:43.382Z,0
2023-04-30T22:21:00.341Z,0
2023-04-30T22:27:20.372Z,0
2023-04-30T22:33:43.390Z,0
2023-04-30T22:40:03.404Z,0
2023-04-30T22:46:26.416Z,0
2023-04-30T22:52:46.391Z,0
2023-04-30T22:59:09.353Z,0
2023-04-30T23:05:29.335Z,0
2023-04-30T23:11:52.326Z,0
2023-04-30T23:18:12.370Z,0
2023-04-30T23:24:35.378Z,0
2023-04-30T23:30:55.395Z,0
2023-04-30T23:37:18.389Z,0
2023-04-30T23:43:38.356Z,0
2023-04-30T23:50:01.334Z,0
2023-04-30T23:56:21.380Z,0
